sensor_id;sensor_type;location;lat;lon;timestamp;P1;durP1;ratioP1;P2;durP2;ratioP2
2892;SDS011;1456;51.840;12.184;2023-07-24T00:00:38;3.77;;;3.57;;
2892;SDS011;1456;51.840;12.184;2023-07-24T00:03:07;2.67;;;2.67;;
2892;SDS011;1456;51.840;12.184;2023-07-24T00:05:33;2.10;;;2.10;;
2892;SDS011;1456;51.840;12.184;2023-07-24T00:08:00;3.90;;;3.80;;
2892;SDS011;1456;51.840;12.184;2023-07-24T00:10:26;2.10;;;2.10;;
2892;SDS011;1456;51.840;12.184;2023-07-24T00:12:51;2.00;;;2.00;;
2892;SDS011;1456;51.840;12.184;2023-07-24T00:15:17;2.60;;;2.60;;
2892;SDS011;1456;51.840;12.184;2023-07-24T00:17:43;1.40;;;1.40;;
2892;SDS011;1456;51.840;12.184;2023-07-24T00:20:08;1.20;;;1.20;;
2892;SDS011;1456;51.840;12.184;2023-07-24T00:22:35;2.70;;;1.73;;
2892;SDS011;1456;51.840;12.184;2023-07-24T00:25:03;3.27;;;2.17;;
2892;SDS011;1456;51.840;12.184;2023-07-24T00:27:31;1.47;;;1.47;;
2892;SDS011;1456;51.840;12.184;2023-07-24T00:29:56;1.17;;;1.17;;
2892;SDS011;1456;51.840;12.184;2023-07-24T00:32:23;1.20;;;1.20;;
2892;SDS011;1456;51.840;12.184;2023-07-24T00:34:50;1.77;;;1.77;;
2892;SDS011;1456;51.840;12.184;2023-07-24T00:37:16;1.43;;;1.43;;
2892;SDS011;1456;51.840;12.184;2023-07-24T00:42:13;1.07;;;1.07;;
2892;SDS011;1456;51.840;12.184;2023-07-24T00:44:38;1.00;;;1.00;;
2892;SDS011;1456;51.840;12.184;2023-07-24T00:47:04;1.10;;;1.10;;
2892;SDS011;1456;51.840;12.184;2023-07-24T00:49:30;1.30;;;1.20;;
2892;SDS011;1456;51.840;12.184;2023-07-24T00:51:56;0.80;;;0.80;;
2892;SDS011;1456;51.840;12.184;2023-07-24T00:54:21;0.97;;;0.97;;
2892;SDS011;1456;51.840;12.184;2023-07-24T00:56:49;0.80;;;0.80;;
2892;SDS011;1456;51.840;12.184;2023-07-24T00:59:15;0.80;;;0.80;;
2892;SDS011;1456;51.840;12.184;2023-07-24T01:01:42;0.80;;;0.80;;
2892;SDS011;1456;51.840;12.184;2023-07-24T01:04:11;0.93;;;0.93;;
2892;SDS011;1456;51.840;12.184;2023-07-24T01:06:38;0.70;;;0.70;;
2892;SDS011;1456;51.840;12.184;2023-07-24T01:09:06;1.00;;;1.00;;
2892;SDS011;1456;51.840;12.184;2023-07-24T01:11:41;0.90;;;0.90;;
2892;SDS011;1456;51.840;12.184;2023-07-24T01:14:27;1.03;;;1.03;;
2892;SDS011;1456;51.840;12.184;2023-07-24T01:17:11;0.90;;;0.90;;
2892;SDS011;1456;51.840;12.184;2023-07-24T01:19:47;1.00;;;1.00;;
2892;SDS011;1456;51.840;12.184;2023-07-24T01:27:40;0.80;;;0.80;;
2892;SDS011;1456;51.840;12.184;2023-07-24T01:30:11;0.80;;;0.80;;
2892;SDS011;1456;51.840;12.184;2023-07-24T01:32:39;1.00;;;1.00;;
2892;SDS011;1456;51.840;12.184;2023-07-24T01:35:07;0.90;;;0.90;;
2892;SDS011;1456;51.840;12.184;2023-07-24T01:37:34;0.90;;;0.90;;
2892;SDS011;1456;51.840;12.184;2023-07-24T01:40:00;1.20;;;1.20;;
2892;SDS011;1456;51.840;12.184;2023-07-24T01:42:27;0.90;;;0.90;;
2892;SDS011;1456;51.840;12.184;2023-07-24T01:44:54;1.00;;;1.00;;
2892;SDS011;1456;51.840;12.184;2023-07-24T01:47:21;1.00;;;1.00;;
2892;SDS011;1456;51.840;12.184;2023-07-24T01:49:47;1.30;;;1.30;;
2892;SDS011;1456;51.840;12.184;2023-07-24T01:52:13;0.90;;;0.90;;
2892;SDS011;1456;51.840;12.184;2023-07-24T01:54:41;1.00;;;1.00;;
2892;SDS011;1456;51.840;12.184;2023-07-24T01:57:07;1.60;;;1.30;;
2892;SDS011;1456;51.840;12.184;2023-07-24T01:59:35;1.40;;;1.40;;
2892;SDS011;1456;51.840;12.184;2023-07-24T02:02:02;1.20;;;1.20;;
2892;SDS011;1456;51.840;12.184;2023-07-24T02:04:28;1.37;;;1.27;;
2892;SDS011;1456;51.840;12.184;2023-07-24T02:06:54;1.83;;;1.83;;
2892;SDS011;1456;51.840;12.184;2023-07-24T02:09:20;0.90;;;0.90;;
2892;SDS011;1456;51.840;12.184;2023-07-24T02:11:47;1.30;;;1.20;;
2892;SDS011;1456;51.840;12.184;2023-07-24T02:14:13;1.37;;;1.37;;
2892;SDS011;1456;51.840;12.184;2023-07-24T02:16:39;1.43;;;1.43;;
2892;SDS011;1456;51.840;12.184;2023-07-24T02:19:05;1.00;;;1.00;;
2892;SDS011;1456;51.840;12.184;2023-07-24T02:21:31;1.00;;;1.00;;
2892;SDS011;1456;51.840;12.184;2023-07-24T02:23:58;1.00;;;1.00;;
2892;SDS011;1456;51.840;12.184;2023-07-24T02:26:24;1.10;;;1.10;;
2892;SDS011;1456;51.840;12.184;2023-07-24T02:28:50;1.10;;;1.10;;
2892;SDS011;1456;51.840;12.184;2023-07-24T02:31:15;1.13;;;1.13;;
2892;SDS011;1456;51.840;12.184;2023-07-24T02:33:41;1.20;;;1.20;;
2892;SDS011;1456;51.840;12.184;2023-07-24T02:36:07;1.60;;;1.60;;
2892;SDS011;1456;51.840;12.184;2023-07-24T02:38:33;1.80;;;1.80;;
2892;SDS011;1456;51.840;12.184;2023-07-24T02:40:59;1.40;;;1.40;;
2892;SDS011;1456;51.840;12.184;2023-07-24T02:43:24;1.90;;;1.80;;
2892;SDS011;1456;51.840;12.184;2023-07-24T02:45:50;1.90;;;1.90;;
2892;SDS011;1456;51.840;12.184;2023-07-24T02:48:16;2.10;;;2.10;;
2892;SDS011;1456;51.840;12.184;2023-07-24T02:50:47;1.80;;;1.80;;
2892;SDS011;1456;51.840;12.184;2023-07-24T02:53:14;2.40;;;2.40;;
2892;SDS011;1456;51.840;12.184;2023-07-24T02:55:43;1.60;;;1.60;;
2892;SDS011;1456;51.840;12.184;2023-07-24T02:58:13;1.43;;;1.43;;
2892;SDS011;1456;51.840;12.184;2023-07-24T03:00:40;5.20;;;1.73;;
2892;SDS011;1456;51.840;12.184;2023-07-24T03:03:06;1.40;;;1.40;;
2892;SDS011;1456;51.840;12.184;2023-07-24T03:05:33;1.50;;;1.50;;
2892;SDS011;1456;51.840;12.184;2023-07-24T03:07:59;1.47;;;1.47;;
2892;SDS011;1456;51.840;12.184;2023-07-24T03:10:25;1.30;;;1.30;;
2892;SDS011;1456;51.840;12.184;2023-07-24T03:12:51;1.67;;;1.57;;
2892;SDS011;1456;51.840;12.184;2023-07-24T03:15:18;1.30;;;1.20;;
2892;SDS011;1456;51.840;12.184;2023-07-24T03:17:44;1.00;;;1.00;;
2892;SDS011;1456;51.840;12.184;2023-07-24T03:20:13;1.50;;;1.50;;
2892;SDS011;1456;51.840;12.184;2023-07-24T03:22:41;1.40;;;1.40;;
2892;SDS011;1456;51.840;12.184;2023-07-24T03:25:08;2.53;;;2.43;;
2892;SDS011;1456;51.840;12.184;2023-07-24T03:27:34;1.50;;;1.50;;
2892;SDS011;1456;51.840;12.184;2023-07-24T03:29:59;1.60;;;1.60;;
2892;SDS011;1456;51.840;12.184;2023-07-24T03:32:25;1.30;;;1.30;;
2892;SDS011;1456;51.840;12.184;2023-07-24T03:34:51;1.97;;;1.87;;
2892;SDS011;1456;51.840;12.184;2023-07-24T03:37:17;2.10;;;1.63;;
2892;SDS011;1456;51.840;12.184;2023-07-24T03:39:43;1.57;;;1.57;;
2892;SDS011;1456;51.840;12.184;2023-07-24T03:42:11;1.60;;;1.60;;
2892;SDS011;1456;51.840;12.184;2023-07-24T03:44:39;1.30;;;1.30;;
2892;SDS011;1456;51.840;12.184;2023-07-24T03:47:05;1.00;;;1.00;;
2892;SDS011;1456;51.840;12.184;2023-07-24T03:49:31;1.00;;;1.00;;
2892;SDS011;1456;51.840;12.184;2023-07-24T03:51:57;1.40;;;1.40;;
2892;SDS011;1456;51.840;12.184;2023-07-24T03:54:22;1.63;;;1.63;;
2892;SDS011;1456;51.840;12.184;2023-07-24T03:56:48;1.37;;;1.37;;
2892;SDS011;1456;51.840;12.184;2023-07-24T03:59:14;1.23;;;1.23;;
2892;SDS011;1456;51.840;12.184;2023-07-24T04:01:40;1.90;;;1.90;;
2892;SDS011;1456;51.840;12.184;2023-07-24T04:04:05;1.90;;;1.90;;
2892;SDS011;1456;51.840;12.184;2023-07-24T04:06:33;1.70;;;1.70;;
2892;SDS011;1456;51.840;12.184;2023-07-24T04:08:59;1.90;;;1.90;;
2892;SDS011;1456;51.840;12.184;2023-07-24T04:11:25;1.87;;;1.87;;
2892;SDS011;1456;51.840;12.184;2023-07-24T04:13:51;2.10;;;2.10;;
2892;SDS011;1456;51.840;12.184;2023-07-24T04:16:17;2.30;;;2.30;;
2892;SDS011;1456;51.840;12.184;2023-07-24T04:18:43;2.40;;;2.40;;
2892;SDS011;1456;51.840;12.184;2023-07-24T04:21:09;2.43;;;2.43;;
2892;SDS011;1456;51.840;12.184;2023-07-24T04:23:35;3.10;;;3.00;;
2892;SDS011;1456;51.840;12.184;2023-07-24T04:26:01;2.07;;;2.07;;
2892;SDS011;1456;51.840;12.184;2023-07-24T04:28:27;2.40;;;2.40;;
2892;SDS011;1456;51.840;12.184;2023-07-24T04:30:54;2.63;;;2.53;;
2892;SDS011;1456;51.840;12.184;2023-07-24T04:33:19;2.47;;;2.47;;
2892;SDS011;1456;51.840;12.184;2023-07-24T04:35:49;3.30;;;3.30;;
2892;SDS011;1456;51.840;12.184;2023-07-24T04:38:16;2.83;;;2.77;;
2892;SDS011;1456;51.840;12.184;2023-07-24T04:40:43;2.30;;;2.30;;
2892;SDS011;1456;51.840;12.184;2023-07-24T04:43:10;2.50;;;2.50;;
2892;SDS011;1456;51.840;12.184;2023-07-24T04:45:36;2.77;;;2.77;;
2892;SDS011;1456;51.840;12.184;2023-07-24T04:48:02;2.93;;;2.90;;
2892;SDS011;1456;51.840;12.184;2023-07-24T04:50:28;2.90;;;2.90;;
2892;SDS011;1456;51.840;12.184;2023-07-24T04:52:54;3.47;;;3.47;;
2892;SDS011;1456;51.840;12.184;2023-07-24T04:55:21;3.03;;;2.93;;
2892;SDS011;1456;51.840;12.184;2023-07-24T04:57:47;2.83;;;2.83;;
2892;SDS011;1456;51.840;12.184;2023-07-24T05:00:13;2.90;;;2.90;;
2892;SDS011;1456;51.840;12.184;2023-07-24T05:02:39;2.60;;;2.60;;
2892;SDS011;1456;51.840;12.184;2023-07-24T05:05:07;3.10;;;3.10;;
2892;SDS011;1456;51.840;12.184;2023-07-24T05:07:33;2.30;;;2.30;;
2892;SDS011;1456;51.840;12.184;2023-07-24T05:10:01;2.20;;;2.20;;
2892;SDS011;1456;51.840;12.184;2023-07-24T05:12:26;2.00;;;2.00;;
2892;SDS011;1456;51.840;12.184;2023-07-24T05:14:52;2.00;;;2.00;;
2892;SDS011;1456;51.840;12.184;2023-07-24T05:17:20;1.90;;;1.90;;
2892;SDS011;1456;51.840;12.184;2023-07-24T05:19:45;2.30;;;2.30;;
2892;SDS011;1456;51.840;12.184;2023-07-24T05:22:11;2.33;;;2.33;;
2892;SDS011;1456;51.840;12.184;2023-07-24T05:24:42;2.90;;;2.80;;
2892;SDS011;1456;51.840;12.184;2023-07-24T05:27:07;3.20;;;3.10;;
2892;SDS011;1456;51.840;12.184;2023-07-24T05:29:33;2.60;;;2.60;;
2892;SDS011;1456;51.840;12.184;2023-07-24T05:31:59;3.13;;;3.03;;
2892;SDS011;1456;51.840;12.184;2023-07-24T05:34:25;3.03;;;3.03;;
2892;SDS011;1456;51.840;12.184;2023-07-24T05:36:51;3.40;;;3.30;;
2892;SDS011;1456;51.840;12.184;2023-07-24T05:39:17;3.40;;;3.40;;
2892;SDS011;1456;51.840;12.184;2023-07-24T05:41:43;2.83;;;2.83;;
2892;SDS011;1456;51.840;12.184;2023-07-24T05:44:09;3.60;;;3.50;;
2892;SDS011;1456;51.840;12.184;2023-07-24T05:46:36;2.90;;;2.90;;
2892;SDS011;1456;51.840;12.184;2023-07-24T05:49:01;3.10;;;3.10;;
2892;SDS011;1456;51.840;12.184;2023-07-24T05:51:28;3.40;;;3.30;;
2892;SDS011;1456;51.840;12.184;2023-07-24T05:53:54;3.23;;;3.23;;
2892;SDS011;1456;51.840;12.184;2023-07-24T05:56:19;3.50;;;3.50;;
2892;SDS011;1456;51.840;12.184;2023-07-24T05:58:45;3.60;;;3.60;;
2892;SDS011;1456;51.840;12.184;2023-07-24T06:01:11;4.60;;;4.50;;
2892;SDS011;1456;51.840;12.184;2023-07-24T06:03:36;3.90;;;3.80;;
2892;SDS011;1456;51.840;12.184;2023-07-24T06:06:05;3.93;;;3.83;;
2892;SDS011;1456;51.840;12.184;2023-07-24T06:08:30;3.90;;;3.90;;
2892;SDS011;1456;51.840;12.184;2023-07-24T06:10:56;5.50;;;4.60;;
2892;SDS011;1456;51.840;12.184;2023-07-24T06:13:22;4.30;;;4.30;;
2892;SDS011;1456;51.840;12.184;2023-07-24T06:15:48;5.57;;;5.37;;
2892;SDS011;1456;51.840;12.184;2023-07-24T06:18:15;4.97;;;4.97;;
2892;SDS011;1456;51.840;12.184;2023-07-24T06:20:41;5.23;;;5.13;;
2892;SDS011;1456;51.840;12.184;2023-07-24T06:23:07;5.70;;;5.60;;
2892;SDS011;1456;51.840;12.184;2023-07-24T06:25:33;5.20;;;5.00;;
2892;SDS011;1456;51.840;12.184;2023-07-24T06:27:58;5.47;;;5.37;;
2892;SDS011;1456;51.840;12.184;2023-07-24T06:30:24;6.60;;;6.40;;
2892;SDS011;1456;51.840;12.184;2023-07-24T06:32:50;6.13;;;6.03;;
2892;SDS011;1456;51.840;12.184;2023-07-24T06:35:16;6.40;;;6.30;;
2892;SDS011;1456;51.840;12.184;2023-07-24T06:37:43;6.57;;;6.27;;
2892;SDS011;1456;51.840;12.184;2023-07-24T06:40:08;7.00;;;6.87;;
2892;SDS011;1456;51.840;12.184;2023-07-24T06:42:35;5.43;;;5.43;;
2892;SDS011;1456;51.840;12.184;2023-07-24T06:45:01;6.57;;;6.47;;
2892;SDS011;1456;51.840;12.184;2023-07-24T06:47:28;6.67;;;6.47;;
2892;SDS011;1456;51.840;12.184;2023-07-24T06:49:53;6.00;;;6.00;;
2892;SDS011;1456;51.840;12.184;2023-07-24T06:52:19;6.73;;;6.63;;
2892;SDS011;1456;51.840;12.184;2023-07-24T06:54:45;8.03;;;7.93;;
2892;SDS011;1456;51.840;12.184;2023-07-24T06:57:11;7.30;;;7.20;;
2892;SDS011;1456;51.840;12.184;2023-07-24T06:59:37;6.83;;;6.73;;
2892;SDS011;1456;51.840;12.184;2023-07-24T07:02:03;7.27;;;7.17;;
2892;SDS011;1456;51.840;12.184;2023-07-24T07:04:29;7.57;;;7.47;;
2892;SDS011;1456;51.840;12.184;2023-07-24T07:06:54;7.40;;;7.30;;
2892;SDS011;1456;51.840;12.184;2023-07-24T07:09:20;7.73;;;7.10;;
2892;SDS011;1456;51.840;12.184;2023-07-24T07:11:46;6.93;;;6.73;;
2892;SDS011;1456;51.840;12.184;2023-07-24T07:14:12;7.53;;;7.43;;
2892;SDS011;1456;51.840;12.184;2023-07-24T07:16:38;7.20;;;7.10;;
2892;SDS011;1456;51.840;12.184;2023-07-24T07:19:05;7.53;;;7.43;;
2892;SDS011;1456;51.840;12.184;2023-07-24T07:21:31;7.47;;;7.23;;
2892;SDS011;1456;51.840;12.184;2023-07-24T07:23:56;7.30;;;7.20;;
2892;SDS011;1456;51.840;12.184;2023-07-24T07:26:22;7.50;;;7.40;;
2892;SDS011;1456;51.840;12.184;2023-07-24T07:28:48;8.60;;;8.40;;
2892;SDS011;1456;51.840;12.184;2023-07-24T07:31:13;7.80;;;7.70;;
2892;SDS011;1456;51.840;12.184;2023-07-24T07:33:39;7.93;;;7.73;;
2892;SDS011;1456;51.840;12.184;2023-07-24T07:36:05;8.37;;;8.27;;
2892;SDS011;1456;51.840;12.184;2023-07-24T07:38:31;7.77;;;7.67;;
2892;SDS011;1456;51.840;12.184;2023-07-24T07:40:57;7.60;;;7.50;;
2892;SDS011;1456;51.840;12.184;2023-07-24T07:43:23;7.87;;;7.77;;
2892;SDS011;1456;51.840;12.184;2023-07-24T07:45:48;9.07;;;8.87;;
2892;SDS011;1456;51.840;12.184;2023-07-24T07:48:14;8.23;;;8.13;;
2892;SDS011;1456;51.840;12.184;2023-07-24T07:50:40;9.20;;;8.93;;
2892;SDS011;1456;51.840;12.184;2023-07-24T07:53:06;9.27;;;9.07;;
2892;SDS011;1456;51.840;12.184;2023-07-24T07:55:32;8.80;;;8.60;;
2892;SDS011;1456;51.840;12.184;2023-07-24T07:57:58;8.40;;;8.30;;
2892;SDS011;1456;51.840;12.184;2023-07-24T08:00:24;7.67;;;7.57;;
2892;SDS011;1456;51.840;12.184;2023-07-24T08:02:50;8.07;;;7.87;;
2892;SDS011;1456;51.840;12.184;2023-07-24T08:05:16;11.10;;;10.03;;
2892;SDS011;1456;51.840;12.184;2023-07-24T08:07:42;8.33;;;8.17;;
2892;SDS011;1456;51.840;12.184;2023-07-24T08:10:08;8.60;;;8.50;;
2892;SDS011;1456;51.840;12.184;2023-07-24T08:12:33;8.40;;;8.30;;
2892;SDS011;1456;51.840;12.184;2023-07-24T08:15:03;8.93;;;8.77;;
2892;SDS011;1456;51.840;12.184;2023-07-24T08:17:29;9.37;;;9.17;;
2892;SDS011;1456;51.840;12.184;2023-07-24T08:19:55;10.50;;;10.10;;
2892;SDS011;1456;51.840;12.184;2023-07-24T08:22:20;9.70;;;9.50;;
2892;SDS011;1456;51.840;12.184;2023-07-24T08:24:48;9.43;;;9.33;;
2892;SDS011;1456;51.840;12.184;2023-07-24T08:27:16;9.50;;;9.40;;
2892;SDS011;1456;51.840;12.184;2023-07-24T08:29:42;10.60;;;10.00;;
2892;SDS011;1456;51.840;12.184;2023-07-24T08:32:08;12.03;;;11.43;;
2892;SDS011;1456;51.840;12.184;2023-07-24T08:34:33;10.20;;;10.00;;
2892;SDS011;1456;51.840;12.184;2023-07-24T08:36:59;10.50;;;10.30;;
2892;SDS011;1456;51.840;12.184;2023-07-24T08:39:25;9.90;;;9.70;;
2892;SDS011;1456;51.840;12.184;2023-07-24T08:41:50;9.57;;;9.37;;
2892;SDS011;1456;51.840;12.184;2023-07-24T08:44:16;9.10;;;8.90;;
2892;SDS011;1456;51.840;12.184;2023-07-24T08:46:43;8.90;;;8.80;;
2892;SDS011;1456;51.840;12.184;2023-07-24T08:49:15;8.67;;;8.57;;
2892;SDS011;1456;51.840;12.184;2023-07-24T08:51:41;8.97;;;8.87;;
2892;SDS011;1456;51.840;12.184;2023-07-24T08:54:08;10.77;;;10.40;;
2892;SDS011;1456;51.840;12.184;2023-07-24T08:56:40;9.17;;;8.87;;
2892;SDS011;1456;51.840;12.184;2023-07-24T08:59:06;9.40;;;9.20;;
2892;SDS011;1456;51.840;12.184;2023-07-24T09:01:32;9.43;;;9.30;;
2892;SDS011;1456;51.840;12.184;2023-07-24T09:03:59;9.50;;;9.30;;
2892;SDS011;1456;51.840;12.184;2023-07-24T09:06:26;9.80;;;9.70;;
2892;SDS011;1456;51.840;12.184;2023-07-24T09:08:53;9.73;;;9.53;;
2892;SDS011;1456;51.840;12.184;2023-07-24T09:11:19;9.83;;;9.47;;
2892;SDS011;1456;51.840;12.184;2023-07-24T09:13:45;8.50;;;8.40;;
2892;SDS011;1456;51.840;12.184;2023-07-24T09:16:24;8.67;;;8.47;;
2892;SDS011;1456;51.840;12.184;2023-07-24T09:18:51;9.97;;;9.67;;
2892;SDS011;1456;51.840;12.184;2023-07-24T09:21:32;9.70;;;9.50;;
2892;SDS011;1456;51.840;12.184;2023-07-24T09:24:08;9.70;;;9.40;;
2892;SDS011;1456;51.840;12.184;2023-07-24T09:26:47;9.97;;;9.77;;
2892;SDS011;1456;51.840;12.184;2023-07-24T09:29:17;9.60;;;9.40;;
2892;SDS011;1456;51.840;12.184;2023-07-24T09:31:43;9.70;;;9.50;;
2892;SDS011;1456;51.840;12.184;2023-07-24T09:34:16;9.17;;;8.97;;
2892;SDS011;1456;51.840;12.184;2023-07-24T09:36:43;9.00;;;8.80;;
2892;SDS011;1456;51.840;12.184;2023-07-24T09:39:09;10.13;;;9.83;;
2892;SDS011;1456;51.840;12.184;2023-07-24T09:41:38;8.33;;;8.23;;
2892;SDS011;1456;51.840;12.184;2023-07-24T09:44:05;7.53;;;7.43;;
2892;SDS011;1456;51.840;12.184;2023-07-24T09:46:31;10.80;;;10.50;;
2892;SDS011;1456;51.840;12.184;2023-07-24T09:48:57;10.30;;;10.10;;
2892;SDS011;1456;51.840;12.184;2023-07-24T09:51:24;9.93;;;9.73;;
2892;SDS011;1456;51.840;12.184;2023-07-24T09:56:22;10.60;;;10.20;;
2892;SDS011;1456;51.840;12.184;2023-07-24T09:58:50;10.70;;;10.20;;
2892;SDS011;1456;51.840;12.184;2023-07-24T10:01:21;11.10;;;10.73;;
2892;SDS011;1456;51.840;12.184;2023-07-24T10:03:49;11.43;;;11.03;;
2892;SDS011;1456;51.840;12.184;2023-07-24T10:06:16;10.80;;;10.30;;
2892;SDS011;1456;51.840;12.184;2023-07-24T10:08:43;10.60;;;10.30;;
2892;SDS011;1456;51.840;12.184;2023-07-24T10:11:10;19.27;;;18.87;;
2892;SDS011;1456;51.840;12.184;2023-07-24T10:13:40;20.80;;;20.27;;
2892;SDS011;1456;51.840;12.184;2023-07-24T10:16:06;19.23;;;18.70;;
2892;SDS011;1456;51.840;12.184;2023-07-24T10:18:34;22.83;;;21.97;;
2892;SDS011;1456;51.840;12.184;2023-07-24T10:23:30;22.23;;;21.50;;
2892;SDS011;1456;51.840;12.184;2023-07-24T10:26:01;20.00;;;19.50;;
2892;SDS011;1456;51.840;12.184;2023-07-24T10:28:40;20.87;;;20.27;;
2892;SDS011;1456;51.840;12.184;2023-07-24T10:31:28;18.20;;;17.70;;
2892;SDS011;1456;51.840;12.184;2023-07-24T10:33:54;22.70;;;22.00;;
2892;SDS011;1456;51.840;12.184;2023-07-24T10:36:22;23.13;;;21.63;;
2892;SDS011;1456;51.840;12.184;2023-07-24T10:38:54;19.67;;;19.20;;
2892;SDS011;1456;51.840;12.184;2023-07-24T10:41:20;19.93;;;19.43;;
2892;SDS011;1456;51.840;12.184;2023-07-24T10:43:48;19.13;;;18.70;;
2892;SDS011;1456;51.840;12.184;2023-07-24T10:46:16;17.60;;;17.20;;
2892;SDS011;1456;51.840;12.184;2023-07-24T10:48:50;15.20;;;14.80;;
2892;SDS011;1456;51.840;12.184;2023-07-24T10:51:16;8.67;;;8.57;;
2892;SDS011;1456;51.840;12.184;2023-07-24T10:53:44;10.30;;;10.00;;
2892;SDS011;1456;51.840;12.184;2023-07-24T10:56:12;10.40;;;10.20;;
2892;SDS011;1456;51.840;12.184;2023-07-24T10:58:39;10.80;;;10.60;;
2892;SDS011;1456;51.840;12.184;2023-07-24T11:01:06;10.57;;;10.27;;
2892;SDS011;1456;51.840;12.184;2023-07-24T11:03:35;10.20;;;9.77;;
2892;SDS011;1456;51.840;12.184;2023-07-24T11:06:02;8.80;;;8.70;;
2892;SDS011;1456;51.840;12.184;2023-07-24T11:08:28;9.10;;;8.90;;
2892;SDS011;1456;51.840;12.184;2023-07-24T11:10:57;9.40;;;9.20;;
2892;SDS011;1456;51.840;12.184;2023-07-24T11:13:24;9.37;;;9.20;;
2892;SDS011;1456;51.840;12.184;2023-07-24T11:15:51;9.73;;;9.63;;
2892;SDS011;1456;51.840;12.184;2023-07-24T11:18:18;9.20;;;9.03;;
2892;SDS011;1456;51.840;12.184;2023-07-24T11:20:52;10.50;;;10.20;;
2892;SDS011;1456;51.840;12.184;2023-07-24T11:23:19;8.90;;;8.70;;
2892;SDS011;1456;51.840;12.184;2023-07-24T11:25:46;9.57;;;9.30;;
2892;SDS011;1456;51.840;12.184;2023-07-24T11:28:19;10.47;;;10.10;;
2892;SDS011;1456;51.840;12.184;2023-07-24T11:30:45;11.07;;;10.70;;
2892;SDS011;1456;51.840;12.184;2023-07-24T11:33:12;10.40;;;10.20;;
2892;SDS011;1456;51.840;12.184;2023-07-24T11:38:11;10.77;;;10.47;;
2892;SDS011;1456;51.840;12.184;2023-07-24T11:40:38;10.20;;;10.00;;
2892;SDS011;1456;51.840;12.184;2023-07-24T11:43:14;9.80;;;9.50;;
2892;SDS011;1456;51.840;12.184;2023-07-24T11:45:48;9.47;;;9.27;;
2892;SDS011;1456;51.840;12.184;2023-07-24T11:48:18;9.90;;;9.70;;
2892;SDS011;1456;51.840;12.184;2023-07-24T11:50:47;9.10;;;8.90;;
2892;SDS011;1456;51.840;12.184;2023-07-24T11:53:28;9.77;;;9.40;;
2892;SDS011;1456;51.840;12.184;2023-07-24T11:55:56;19.90;;;19.40;;
2892;SDS011;1456;51.840;12.184;2023-07-24T11:58:27;20.37;;;19.83;;
2892;SDS011;1456;51.840;12.184;2023-07-24T12:00:55;20.23;;;19.57;;
2892;SDS011;1456;51.840;12.184;2023-07-24T12:03:24;21.47;;;20.67;;
2892;SDS011;1456;51.840;12.184;2023-07-24T12:05:51;19.07;;;18.57;;
2892;SDS011;1456;51.840;12.184;2023-07-24T12:08:20;19.47;;;19.07;;
2892;SDS011;1456;51.840;12.184;2023-07-24T12:10:49;18.90;;;18.50;;
2892;SDS011;1456;51.840;12.184;2023-07-24T12:13:15;19.10;;;18.60;;
2892;SDS011;1456;51.840;12.184;2023-07-24T12:15:41;17.90;;;17.50;;
2892;SDS011;1456;51.840;12.184;2023-07-24T12:18:07;10.73;;;10.43;;
2892;SDS011;1456;51.840;12.184;2023-07-24T12:20:33;10.60;;;10.40;;
2892;SDS011;1456;51.840;12.184;2023-07-24T12:22:59;10.60;;;10.40;;
2892;SDS011;1456;51.840;12.184;2023-07-24T12:25:26;11.23;;;11.03;;
2892;SDS011;1456;51.840;12.184;2023-07-24T12:27:54;10.30;;;10.20;;
2892;SDS011;1456;51.840;12.184;2023-07-24T12:30:19;11.77;;;11.37;;
2892;SDS011;1456;51.840;12.184;2023-07-24T12:32:45;10.60;;;10.30;;
2892;SDS011;1456;51.840;12.184;2023-07-24T12:35:15;9.20;;;9.10;;
2892;SDS011;1456;51.840;12.184;2023-07-24T12:37:41;19.83;;;19.33;;
2892;SDS011;1456;51.840;12.184;2023-07-24T12:40:13;20.70;;;20.20;;
2892;SDS011;1456;51.840;12.184;2023-07-24T12:42:40;19.20;;;18.80;;
2892;SDS011;1456;51.840;12.184;2023-07-24T12:45:12;18.90;;;18.30;;
2892;SDS011;1456;51.840;12.184;2023-07-24T12:47:40;19.83;;;19.33;;
2892;SDS011;1456;51.840;12.184;2023-07-24T12:50:06;19.20;;;18.70;;
2892;SDS011;1456;51.840;12.184;2023-07-24T12:52:33;18.47;;;18.00;;
2892;SDS011;1456;51.840;12.184;2023-07-24T12:54:59;15.63;;;15.23;;
2892;SDS011;1456;51.840;12.184;2023-07-24T12:57:26;10.23;;;10.03;;
2892;SDS011;1456;51.840;12.184;2023-07-24T12:59:52;10.63;;;10.33;;
2892;SDS011;1456;51.840;12.184;2023-07-24T13:02:18;9.37;;;9.20;;
2892;SDS011;1456;51.840;12.184;2023-07-24T13:04:44;10.40;;;10.10;;
2892;SDS011;1456;51.840;12.184;2023-07-24T13:07:09;10.77;;;10.57;;
2892;SDS011;1456;51.840;12.184;2023-07-24T13:09:35;11.10;;;10.80;;
2892;SDS011;1456;51.840;12.184;2023-07-24T13:12:01;11.47;;;10.97;;
2892;SDS011;1456;51.840;12.184;2023-07-24T13:14:27;11.00;;;10.70;;
2892;SDS011;1456;51.840;12.184;2023-07-24T13:16:53;10.60;;;10.30;;
2892;SDS011;1456;51.840;12.184;2023-07-24T13:19:19;10.37;;;10.17;;
2892;SDS011;1456;51.840;12.184;2023-07-24T13:21:44;10.40;;;10.10;;
2892;SDS011;1456;51.840;12.184;2023-07-24T13:24:13;8.87;;;8.67;;
2892;SDS011;1456;51.840;12.184;2023-07-24T13:26:40;9.40;;;9.00;;
2892;SDS011;1456;51.840;12.184;2023-07-24T13:29:05;8.70;;;8.30;;
2892;SDS011;1456;51.840;12.184;2023-07-24T13:31:32;8.83;;;8.60;;
2892;SDS011;1456;51.840;12.184;2023-07-24T13:33:59;9.10;;;8.90;;
2892;SDS011;1456;51.840;12.184;2023-07-24T13:36:26;8.70;;;8.50;;
2892;SDS011;1456;51.840;12.184;2023-07-24T13:38:52;9.33;;;9.13;;
2892;SDS011;1456;51.840;12.184;2023-07-24T13:41:24;10.30;;;10.10;;
2892;SDS011;1456;51.840;12.184;2023-07-24T13:43:50;10.23;;;9.90;;
2892;SDS011;1456;51.840;12.184;2023-07-24T13:46:16;9.27;;;9.07;;
2892;SDS011;1456;51.840;12.184;2023-07-24T13:48:42;10.10;;;9.70;;
2892;SDS011;1456;51.840;12.184;2023-07-24T13:51:07;9.30;;;9.20;;
2892;SDS011;1456;51.840;12.184;2023-07-24T13:53:33;9.30;;;9.20;;
2892;SDS011;1456;51.840;12.184;2023-07-24T13:55:59;11.23;;;10.87;;
2892;SDS011;1456;51.840;12.184;2023-07-24T13:58:26;10.43;;;10.13;;
2892;SDS011;1456;51.840;12.184;2023-07-24T14:00:51;10.20;;;10.00;;
2892;SDS011;1456;51.840;12.184;2023-07-24T14:03:17;12.07;;;11.50;;
2892;SDS011;1456;51.840;12.184;2023-07-24T14:05:43;10.77;;;10.50;;
2892;SDS011;1456;51.840;12.184;2023-07-24T14:08:09;9.33;;;9.23;;
2892;SDS011;1456;51.840;12.184;2023-07-24T14:10:36;10.77;;;10.47;;
2892;SDS011;1456;51.840;12.184;2023-07-24T14:13:03;17.70;;;16.77;;
2892;SDS011;1456;51.840;12.184;2023-07-24T14:15:30;16.97;;;16.47;;
2892;SDS011;1456;51.840;12.184;2023-07-24T14:17:55;17.40;;;16.70;;
2892;SDS011;1456;51.840;12.184;2023-07-24T14:20:21;16.97;;;16.33;;
2892;SDS011;1456;51.840;12.184;2023-07-24T14:22:47;17.87;;;17.37;;
2892;SDS011;1456;51.840;12.184;2023-07-24T14:25:14;17.40;;;16.90;;
2892;SDS011;1456;51.840;12.184;2023-07-24T14:27:41;16.30;;;15.90;;
2892;SDS011;1456;51.840;12.184;2023-07-24T14:30:08;19.03;;;18.07;;
2892;SDS011;1456;51.840;12.184;2023-07-24T14:32:35;17.03;;;16.60;;
2892;SDS011;1456;51.840;12.184;2023-07-24T14:35:01;16.70;;;16.30;;
2892;SDS011;1456;51.840;12.184;2023-07-24T14:37:27;17.30;;;16.80;;
2892;SDS011;1456;51.840;12.184;2023-07-24T14:39:53;17.57;;;17.07;;
2892;SDS011;1456;51.840;12.184;2023-07-24T14:42:19;15.67;;;15.17;;
2892;SDS011;1456;51.840;12.184;2023-07-24T14:44:45;16.20;;;15.60;;
2892;SDS011;1456;51.840;12.184;2023-07-24T14:47:11;15.50;;;15.20;;
2892;SDS011;1456;51.840;12.184;2023-07-24T14:49:39;14.90;;;14.60;;
2892;SDS011;1456;51.840;12.184;2023-07-24T14:52:05;16.20;;;15.67;;
2892;SDS011;1456;51.840;12.184;2023-07-24T14:54:31;16.37;;;15.87;;
2892;SDS011;1456;51.840;12.184;2023-07-24T14:56:57;18.03;;;17.53;;
2892;SDS011;1456;51.840;12.184;2023-07-24T14:59:25;18.13;;;17.63;;
2892;SDS011;1456;51.840;12.184;2023-07-24T15:01:51;18.30;;;17.20;;
2892;SDS011;1456;51.840;12.184;2023-07-24T15:04:16;17.23;;;16.83;;
2892;SDS011;1456;51.840;12.184;2023-07-24T15:06:42;18.53;;;17.93;;